createdAt,value
2023-01-01T00:04:53.790Z,13
2023-01-01T00:11:07.112Z,10
2023-01-01T00:16:57.414Z,7
2023-01-01T00:22:57.750Z,5
2023-01-01T00:28:55.954Z,5
2023-01-01T00:35:07.824Z,6
2023-01-01T00:41:14.120Z,4
2023-01-01T00:47:13.623Z,4
2023-01-01T00:53:01.478Z,3
2023-01-01T00:59:01.040Z,3
2023-01-01T01:05:17.025Z,3
2023-01-01T01:10:57.119Z,7
2023-01-01T01:16:55.836Z,4
2023-01-01T01:22:51.979Z,4
2023-01-01T01:28:50.004Z,4
2023-01-01T01:35:07.697Z,5
2023-01-01T01:41:04.327Z,3
2023-01-01T01:47:02.439Z,2
2023-01-01T01:52:47.230Z,5
2023-01-01T01:58:51.388Z,4
2023-01-01T02:04:48.779Z,3
2023-01-01T02:11:02.061Z,2
2023-01-01T02:16:57.073Z,3
2023-01-01T02:22:49.106Z,3
2023-01-01T02:28:46.850Z,3
2023-01-01T02:34:47.046Z,3
2023-01-01T02:40:47.100Z,3
2023-01-01T02:46:47.466Z,2
2023-01-01T02:52:47.299Z,6
2023-01-01T02:58:46.918Z,3
2023-01-01T03:04:47.000Z,3
2023-01-01T03:10:47.017Z,2
2023-01-01T03:16:47.049Z,3
2023-01-01T03:22:47.486Z,4
2023-01-01T03:28:47.769Z,2
2023-01-01T03:34:47.285Z,3
2023-01-01T03:40:47.361Z,3
2023-01-01T03:46:47.261Z,3
2023-01-01T03:52:47.005Z,4
2023-01-01T03:58:46.926Z,2
2023-01-01T04:04:47.816Z,2
2023-01-01T04:10:47.581Z,3
2023-01-01T04:16:47.316Z,4
2023-01-01T04:22:47.191Z,5
2023-01-01T04:28:47.784Z,3
2023-01-01T04:34:47.481Z,3
2023-01-01T04:40:47.282Z,2
2023-01-01T04:46:47.760Z,4
2023-01-01T04:52:47.086Z,3
2023-01-01T04:58:47.713Z,3
2023-01-01T05:04:47.328Z,2
2023-01-01T05:10:47.414Z,7
2023-01-01T05:16:48.106Z,2
2023-01-01T05:22:47.605Z,3
2023-01-01T05:28:47.714Z,3
2023-01-01T05:34:47.741Z,2
2023-01-01T05:40:47.210Z,2
2023-01-01T05:46:47.247Z,4
2023-01-01T05:52:47.530Z,2
2023-01-01T05:58:47.495Z,2
2023-01-01T06:04:48.142Z,2
2023-01-01T06:10:47.810Z,3
2023-01-01T06:16:47.309Z,3
2023-01-01T06:22:47.340Z,2
2023-01-01T06:28:47.436Z,2
2023-01-01T06:34:47.218Z,3
2023-01-01T06:40:47.321Z,3
2023-01-01T06:46:47.541Z,4
2023-01-01T06:52:48.088Z,3
2023-01-01T06:58:47.251Z,4
2023-01-01T07:04:47.474Z,4
2023-01-01T07:10:47.728Z,3
2023-01-01T07:16:47.597Z,3
2023-01-01T07:22:47.374Z,5
2023-01-01T07:28:47.209Z,2
2023-01-01T07:34:50.645Z,3
2023-01-01T07:40:47.329Z,5
2023-01-01T07:46:47.608Z,4
2023-01-01T07:52:47.822Z,3
2023-01-01T07:58:48.075Z,4
2023-01-01T08:04:47.421Z,3
2023-01-01T08:10:48.320Z,4
2023-01-01T08:16:47.306Z,2
2023-01-01T08:22:47.226Z,3
2023-01-01T08:28:53.473Z,4
2023-01-01T08:34:48.335Z,3
2023-01-01T08:40:47.680Z,3
2023-01-01T08:46:47.375Z,3
2023-01-01T08:52:47.125Z,7
2023-01-01T08:58:47.421Z,4
2023-01-01T09:04:47.455Z,3
2023-01-01T09:10:47.733Z,3
2023-01-01T09:16:47.314Z,3
2023-01-01T09:22:47.301Z,4
2023-01-01T09:28:47.681Z,6
2023-01-01T09:34:52.305Z,4
2023-01-01T09:40:51.124Z,3
2023-01-01T09:46:47.131Z,4
2023-01-01T09:52:47.235Z,5
2023-01-01T09:58:47.344Z,4
2023-01-01T10:04:47.385Z,2
2023-01-01T10:10:47.090Z,3
2023-01-01T10:16:47.162Z,3
2023-01-01T10:22:47.576Z,3
2023-01-01T10:28:47.724Z,3
2023-01-01T10:34:47.662Z,2
2023-01-01T10:40:47.876Z,2
2023-01-01T10:46:47.427Z,4
2023-01-01T10:52:47.190Z,5
2023-01-01T10:58:47.237Z,2
2023-01-01T11:04:47.198Z,2
2023-01-01T11:10:47.263Z,3
2023-01-01T11:16:48.544Z,2
2023-01-01T11:22:47.872Z,2
2023-01-01T11:28:47.680Z,2
2023-01-01T11:34:47.329Z,5
2023-01-01T11:40:47.315Z,5
2023-01-01T11:46:47.218Z,2
2023-01-01T11:52:47.651Z,3
2023-01-01T11:58:47.150Z,3
2023-01-01T12:04:48.046Z,3
2023-01-01T12:10:47.386Z,2
2023-01-01T12:16:47.245Z,4
2023-01-01T12:22:47.646Z,4
2023-01-01T12:28:47.381Z,2
2023-01-01T12:34:47.086Z,3
2023-01-01T12:40:47.042Z,3
2023-01-01T12:46:47.194Z,3
2023-01-01T12:52:47.147Z,3
2023-01-01T12:58:46.978Z,3
2023-01-01T13:04:47.495Z,2
2023-01-01T13:10:47.329Z,4
2023-01-01T13:16:47.570Z,3
2023-01-01T13:22:47.263Z,4
2023-01-01T13:28:47.000Z,2
2023-01-01T13:34:47.087Z,2
2023-01-01T13:40:47.115Z,2
2023-01-01T13:46:47.128Z,2
2023-01-01T13:52:47.056Z,2
2023-01-01T13:58:47.048Z,2
2023-01-01T14:04:47.133Z,2
2023-01-01T14:10:47.354Z,3
2023-01-01T14:16:47.455Z,2
2023-01-01T14:22:47.291Z,5
2023-01-01T14:28:47.595Z,2
2023-01-01T14:34:47.395Z,3
2023-01-01T14:40:47.548Z,2
2023-01-01T14:46:47.279Z,5
2023-01-01T14:52:47.953Z,4
2023-01-01T14:58:47.656Z,3
2023-01-01T15:04:47.418Z,2
2023-01-01T15:10:48.408Z,4
2023-01-01T15:16:47.316Z,2
2023-01-01T15:22:47.306Z,3
2023-01-01T15:28:47.343Z,3
2023-01-01T15:34:47.363Z,3
2023-01-01T15:40:52.935Z,3
2023-01-01T15:46:47.243Z,6
2023-01-01T15:52:53.287Z,5
2023-01-01T15:58:47.553Z,5
2023-01-01T16:04:48.204Z,6
2023-01-01T16:10:47.945Z,4
2023-01-01T16:16:47.468Z,3
2023-01-01T16:22:47.663Z,5
2023-01-01T16:28:47.477Z,3
2023-01-01T16:34:47.498Z,5
2023-01-01T16:40:47.867Z,6
2023-01-01T16:46:47.447Z,6
2023-01-01T16:52:47.598Z,7
2023-01-01T16:58:49.453Z,7
2023-01-01T17:04:47.439Z,5
2023-01-01T17:10:47.764Z,5
2023-01-01T17:16:47.657Z,4
2023-01-01T17:22:47.588Z,5
2023-01-01T17:28:47.891Z,6
2023-01-01T17:34:48.141Z,5
2023-01-01T17:40:47.580Z,6
2023-01-01T17:46:47.697Z,6
2023-01-01T17:52:47.616Z,6
2023-01-01T17:58:47.930Z,6
2023-01-01T18:04:47.506Z,6
2023-01-01T18:10:47.574Z,15
2023-01-01T18:16:47.580Z,16
2023-01-01T18:22:47.755Z,12
2023-01-01T18:28:47.897Z,9
2023-01-01T18:34:47.365Z,6
2023-01-01T18:40:47.613Z,10
2023-01-01T18:46:47.575Z,10
2023-01-01T18:52:47.935Z,6
2023-01-01T18:58:47.388Z,11
2023-01-01T19:04:47.488Z,8
2023-01-01T19:10:47.457Z,9
2023-01-01T19:16:47.702Z,10
2023-01-01T19:22:47.707Z,13
2023-01-01T19:28:47.343Z,10
2023-01-01T19:34:48.181Z,11
2023-01-01T19:40:47.770Z,8
2023-01-01T19:46:47.581Z,8
2023-01-01T19:52:47.848Z,7
2023-01-01T19:58:48.051Z,7
2023-01-01T20:04:47.905Z,9
2023-01-01T20:10:47.800Z,10
2023-01-01T20:16:47.665Z,10
2023-01-01T20:22:47.511Z,6
2023-01-01T20:28:47.779Z,9
2023-01-01T20:34:47.707Z,11
2023-01-01T20:40:47.457Z,8
2023-01-01T20:46:47.573Z,8
2023-01-01T20:52:47.854Z,7
2023-01-01T20:58:50.241Z,10
2023-01-01T21:04:47.721Z,8
2023-01-01T21:10:47.891Z,7
2023-01-01T21:16:47.581Z,7
2023-01-01T21:22:47.592Z,10
2023-01-01T21:28:47.565Z,8
2023-01-01T21:34:47.598Z,5
2023-01-01T21:40:48.395Z,7
2023-01-01T21:46:47.588Z,7
2023-01-01T21:52:47.819Z,8
2023-01-01T21:58:47.766Z,9
2023-01-01T22:04:48.064Z,6
2023-01-01T22:10:50.590Z,10
2023-01-01T22:16:47.653Z,10
2023-01-01T22:22:49.944Z,8
2023-01-01T22:28:49.188Z,11
2023-01-01T22:34:53.259Z,7
2023-01-01T22:41:16.454Z,9
2023-01-01T22:46:53.589Z,6
2023-01-01T22:52:56.262Z,4
2023-01-01T22:58:57.610Z,5
2023-01-01T23:05:19.925Z,6
2023-01-01T23:10:53.914Z,5
2023-01-01T23:17:01.698Z,9
2023-01-01T23:23:05.351Z,7
2023-01-01T23:28:54.071Z,7
2023-01-01T23:35:25.560Z,5
2023-01-01T23:41:14.968Z,10
2023-01-01T23:47:06.141Z,5
2023-01-01T23:52:50.070Z,7
2023-01-01T23:58:51.430Z,7
